createdAt,value
2023-01-17T00:00:06.941Z,98005.36
2023-01-17T00:02:33.475Z,98016.43
2023-01-17T00:05:00.023Z,98010.53
2023-01-17T00:07:27.233Z,98008.41
2023-01-17T00:09:53.729Z,98009.61
2023-01-17T00:12:21.168Z,98013.59
2023-01-17T00:14:48.049Z,98008.34
2023-01-17T00:17:14.535Z,97996.18
2023-01-17T00:19:40.985Z,97995.97
2023-01-17T00:22:31.351Z,97992.16
2023-01-17T00:24:57.805Z,98003.07
2023-01-17T00:27:24.292Z,98002.35
2023-01-17T00:29:50.964Z,98008.92
2023-01-17T00:32:17.495Z,97998.32
2023-01-17T00:34:43.964Z,97995.00
2023-01-17T00:37:10.701Z,97994.97
2023-01-17T00:39:37.165Z,97990.43
2023-01-17T00:42:03.693Z,97991.11
2023-01-17T00:44:30.157Z,98000.77
2023-01-17T00:46:56.655Z,97994.48
2023-01-17T00:49:23.143Z,97998.09
2023-01-17T00:51:49.803Z,97995.95
2023-01-17T00:54:18.910Z,97995.94
2023-01-17T00:56:45.824Z,97984.45
2023-01-17T00:59:12.286Z,97985.12
2023-01-17T01:01:38.911Z,97987.73
2023-01-17T01:04:05.488Z,97989.27
2023-01-17T01:06:31.946Z,97992.16
2023-01-17T01:08:58.431Z,97990.91
2023-01-17T01:11:24.914Z,98000.44
2023-01-17T01:13:51.476Z,98005.63
2023-01-17T01:16:19.877Z,98007.92
2023-01-17T01:18:46.524Z,98017.81
2023-01-17T01:21:12.981Z,98001.00
2023-01-17T01:23:39.577Z,97999.92
2023-01-17T01:26:06.036Z,98016.03
2023-01-17T01:28:32.553Z,98010.48
2023-01-17T01:31:00.268Z,98008.42
2023-01-17T01:33:26.739Z,98010.17
2023-01-17T01:35:55.257Z,98005.56
2023-01-17T01:38:24.443Z,98001.79
2023-01-17T01:40:54.126Z,98001.29
2023-01-17T01:43:48.098Z,98006.52
2023-01-17T01:46:25.788Z,98011.06
2023-01-17T01:49:00.461Z,98023.38
2023-01-17T01:51:35.061Z,98013.19
2023-01-17T01:54:10.398Z,98012.52
2023-01-17T01:56:38.964Z,98007.35
2023-01-17T01:59:09.757Z,97999.90
2023-01-17T02:01:37.122Z,97998.00
2023-01-17T02:04:05.534Z,97995.05
2023-01-17T02:06:42.095Z,97984.11
2023-01-17T02:09:11.912Z,97989.30
2023-01-17T02:11:39.882Z,97978.77
2023-01-17T02:14:06.556Z,97974.65
2023-01-17T02:16:46.907Z,97974.83
2023-01-17T02:19:13.339Z,97969.27
2023-01-17T02:21:46.199Z,97965.13
2023-01-17T02:24:24.635Z,97958.54
2023-01-17T02:26:56.582Z,97965.99
2023-01-17T02:29:26.095Z,97969.29
2023-01-17T02:32:01.029Z,97972.23
2023-01-17T02:34:38.619Z,97972.06
2023-01-17T02:37:15.167Z,97971.02
2023-01-17T02:39:56.027Z,97968.61
2023-01-17T02:42:40.307Z,97963.77
2023-01-17T02:45:07.203Z,97963.77
2023-01-17T02:47:33.949Z,97965.54
2023-01-17T02:50:07.062Z,97965.18
2023-01-17T02:53:22.757Z,97959.10
2023-01-17T02:55:59.044Z,97944.70
2023-01-17T02:58:53.228Z,97930.48
2023-01-17T03:01:38.433Z,97918.85
2023-01-17T03:04:33.922Z,97910.85
2023-01-17T03:07:06.006Z,97897.52
2023-01-17T03:09:33.448Z,97890.93
2023-01-17T03:12:00.350Z,97892.68
2023-01-17T03:14:30.060Z,97885.91
2023-01-17T03:16:56.569Z,97873.92
2023-01-17T03:19:23.088Z,97879.98
2023-01-17T03:21:49.538Z,97885.34
2023-01-17T03:24:16.016Z,97873.90
2023-01-17T03:26:42.465Z,97873.70
2023-01-17T03:29:08.933Z,97867.28
2023-01-17T03:31:35.469Z,97860.67
2023-01-17T03:34:02.106Z,97853.89
2023-01-17T03:36:28.567Z,97848.48
2023-01-17T03:38:55.036Z,97844.13
2023-01-17T03:41:21.474Z,97840.13
2023-01-17T03:43:47.935Z,97835.06
2023-01-17T03:46:23.529Z,97831.59
2023-01-17T03:48:50.465Z,97832.61
2023-01-17T03:51:17.252Z,97832.61
2023-01-17T03:53:44.431Z,97834.14
2023-01-17T03:56:10.887Z,97830.64
2023-01-17T03:58:37.371Z,97829.58
2023-01-17T04:01:04.628Z,97824.52
2023-01-17T04:03:31.348Z,97828.27
2023-01-17T04:05:57.875Z,97831.02
2023-01-17T04:08:24.467Z,97828.24
2023-01-17T04:10:50.927Z,97830.30
2023-01-17T04:13:17.395Z,97827.54
2023-01-17T04:15:48.863Z,97822.65
2023-01-17T04:18:17.670Z,97820.19
2023-01-17T04:20:44.375Z,97825.04
2023-01-17T04:23:11.163Z,97824.19
2023-01-17T04:25:37.800Z,97828.15
2023-01-17T04:28:04.406Z,97827.14
2023-01-17T04:30:32.620Z,97833.52
2023-01-17T04:32:59.223Z,97835.58
2023-01-17T04:35:25.928Z,97840.44
2023-01-17T04:37:52.901Z,97835.90
2023-01-17T04:40:19.508Z,97833.80
2023-01-17T04:42:46.276Z,97832.21
2023-01-17T04:45:13.268Z,97840.19
2023-01-17T04:47:40.115Z,97832.75
2023-01-17T04:50:07.491Z,97823.92
2023-01-17T04:52:33.965Z,97829.13
2023-01-17T04:55:00.448Z,97842.14
2023-01-17T04:57:26.932Z,97842.14
2023-01-17T04:59:53.419Z,97847.53
2023-01-17T05:02:20.250Z,97844.60
2023-01-17T05:04:46.757Z,97844.59
2023-01-17T05:07:13.728Z,97846.15
2023-01-17T05:09:40.199Z,97850.66
2023-01-17T05:12:06.687Z,97850.64
2023-01-17T05:14:33.139Z,97846.13
2023-01-17T05:16:59.736Z,97847.88
2023-01-17T05:19:27.298Z,97844.41
2023-01-17T05:21:53.812Z,97846.50
2023-01-17T05:24:20.764Z,97843.56
2023-01-17T05:26:49.627Z,97839.90
2023-01-17T05:29:16.732Z,97842.33
2023-01-17T05:31:43.187Z,97841.99
2023-01-17T05:34:09.805Z,97838.52
2023-01-17T05:36:36.282Z,97847.86
2023-01-17T05:39:02.757Z,97855.15
2023-01-17T05:41:29.253Z,97855.67
2023-01-17T05:43:55.807Z,97861.77
2023-01-17T05:46:22.444Z,97867.16
2023-01-17T05:48:48.923Z,97870.65
2023-01-17T05:51:15.373Z,97871.88
2023-01-17T05:53:41.994Z,97880.05
2023-01-17T05:56:08.476Z,97884.58
2023-01-17T05:58:34.960Z,97887.53
2023-01-17T06:01:01.522Z,97893.59
2023-01-17T06:03:27.999Z,97898.28
2023-01-17T06:05:54.492Z,97906.80
2023-01-17T06:08:21.179Z,97907.17
2023-01-17T06:10:47.796Z,97915.88
2023-01-17T06:13:14.517Z,97916.77
2023-01-17T06:15:41.452Z,97916.80
2023-01-17T06:18:13.008Z,97917.84
2023-01-17T06:20:40.223Z,97914.92
2023-01-17T06:23:09.817Z,97915.98
2023-01-17T06:25:41.844Z,97917.22
2023-01-17T06:28:08.373Z,97920.86
2023-01-17T06:30:35.427Z,97924.68
2023-01-17T06:33:02.325Z,97926.76
2023-01-17T06:35:29.285Z,97924.55
2023-01-17T06:37:56.166Z,97934.80
2023-01-17T06:40:22.846Z,97942.27
2023-01-17T06:42:49.354Z,97950.77
2023-01-17T06:45:15.973Z,97957.89
2023-01-17T06:47:42.817Z,97958.10
2023-01-17T06:50:11.980Z,97957.59
2023-01-17T06:52:38.457Z,97961.92
2023-01-17T06:55:05.451Z,97967.12
2023-01-17T06:57:31.967Z,97974.54
2023-01-17T06:59:58.450Z,97980.21
2023-01-17T07:02:24.972Z,97980.70
2023-01-17T07:04:51.511Z,97985.36
2023-01-17T07:07:17.999Z,97991.73
2023-01-17T07:09:44.578Z,97992.06
2023-01-17T07:12:11.071Z,97996.23
2023-01-17T07:14:37.653Z,97995.36
2023-01-17T07:17:04.347Z,98004.03
2023-01-17T07:19:30.852Z,98004.04
2023-01-17T07:21:57.299Z,98008.04
2023-01-17T07:24:23.793Z,98015.14
2023-01-17T07:26:51.432Z,98020.85
2023-01-17T07:29:18.599Z,98023.64
2023-01-17T07:31:45.164Z,98023.48
2023-01-17T07:34:11.632Z,98026.13
2023-01-17T07:36:38.098Z,98028.59
2023-01-17T07:39:06.311Z,98038.50
2023-01-17T07:41:33.794Z,98039.41
2023-01-17T07:44:00.320Z,98047.41
2023-01-17T07:46:27.157Z,98047.44
2023-01-17T07:48:53.621Z,98055.24
2023-01-17T07:51:20.089Z,98062.71
2023-01-17T07:53:46.560Z,98066.18
2023-01-17T07:56:13.206Z,98067.92
2023-01-17T07:58:39.810Z,98064.97
2023-01-17T08:01:09.829Z,98073.98
2023-01-17T08:03:36.780Z,98073.64
2023-01-17T08:06:03.430Z,98081.99
2023-01-17T08:08:29.945Z,98084.11
2023-01-17T08:10:56.450Z,98083.80
2023-01-17T08:13:23.273Z,98095.60
2023-01-17T08:15:51.004Z,98099.42
2023-01-17T08:18:18.064Z,98104.60
2023-01-17T08:20:44.802Z,98108.73
2023-01-17T08:23:11.459Z,98109.74
2023-01-17T08:25:38.511Z,98109.19
2023-01-17T08:28:05.314Z,98105.50
2023-01-17T08:30:31.796Z,98105.58
2023-01-17T08:32:58.277Z,98107.76
2023-01-17T08:35:25.194Z,98114.80
2023-01-17T08:37:55.153Z,98121.31
2023-01-17T08:40:22.578Z,98129.03
2023-01-17T08:42:57.115Z,98127.90
2023-01-17T08:45:24.332Z,98131.75
2023-01-17T08:47:51.246Z,98135.24
2023-01-17T08:50:18.207Z,98134.48
2023-01-17T08:52:44.741Z,98136.36
2023-01-17T08:55:11.224Z,98137.39
2023-01-17T08:57:37.700Z,98139.49
2023-01-17T09:00:04.523Z,98139.77
2023-01-17T09:02:30.999Z,98135.66
2023-01-17T09:04:57.594Z,98135.84
2023-01-17T09:07:24.253Z,98133.98
2023-01-17T09:09:50.734Z,98134.93
2023-01-17T09:12:17.235Z,98135.59
2023-01-17T09:14:43.745Z,98142.64
2023-01-17T09:17:10.243Z,98147.52
2023-01-17T09:19:36.708Z,98136.77
2023-01-17T09:22:05.141Z,98131.53
2023-01-17T09:24:31.740Z,98129.79
2023-01-17T09:26:58.275Z,98123.02
2023-01-17T09:29:24.780Z,98120.60
2023-01-17T09:31:51.266Z,98114.52
2023-01-17T09:34:17.747Z,98117.83
2023-01-17T09:36:44.802Z,98126.34
2023-01-17T09:39:11.683Z,98132.11
2023-01-17T09:41:52.159Z,98139.68
2023-01-17T09:44:45.943Z,98147.86
2023-01-17T09:47:45.219Z,98154.73
2023-01-17T09:50:17.658Z,98164.27
2023-01-17T09:52:44.708Z,98174.38
2023-01-17T09:55:16.669Z,98173.25
2023-01-17T09:57:52.292Z,98176.00
2023-01-17T10:00:46.515Z,98178.20
2023-01-17T10:03:13.132Z,98173.16
2023-01-17T10:05:50.698Z,98175.59
2023-01-17T10:08:45.072Z,98181.73
2023-01-17T10:11:17.193Z,98185.42
2023-01-17T10:14:25.305Z,98189.42
2023-01-17T10:17:05.754Z,98194.05
2023-01-17T10:19:53.374Z,98196.48
2023-01-17T10:22:42.494Z,98198.02
2023-01-17T10:25:20.863Z,98193.90
2023-01-17T10:27:56.209Z,98191.41
2023-01-17T10:30:30.011Z,98184.31
2023-01-17T10:33:01.088Z,98183.45
2023-01-17T10:35:33.436Z,98189.52
2023-01-17T10:38:04.136Z,98186.34
2023-01-17T10:40:42.652Z,98180.02
2023-01-17T10:43:40.025Z,98173.41
2023-01-17T10:46:15.757Z,98165.44
2023-01-17T10:48:45.705Z,98156.46
2023-01-17T10:51:18.429Z,98150.85
2023-01-17T10:53:56.935Z,98145.20
2023-01-17T10:56:27.786Z,98145.30
2023-01-17T10:59:09.930Z,98153.70
2023-01-17T11:01:36.443Z,98155.88
2023-01-17T11:04:03.915Z,98140.73
2023-01-17T11:06:30.413Z,98133.45
2023-01-17T11:08:59.840Z,98127.61
2023-01-17T11:11:32.069Z,98124.55
2023-01-17T11:14:01.001Z,98116.65
2023-01-17T11:16:30.832Z,98111.75
2023-01-17T11:19:32.063Z,98111.00
2023-01-17T11:22:04.245Z,98117.95
2023-01-17T11:24:41.204Z,98125.27
2023-01-17T11:27:23.109Z,98123.50
2023-01-17T11:30:03.599Z,98121.30
2023-01-17T11:32:32.599Z,98113.04
2023-01-17T11:35:25.836Z,98107.34
2023-01-17T11:37:58.699Z,98095.88
2023-01-17T11:40:46.372Z,98095.77
2023-01-17T11:43:12.776Z,98093.55
2023-01-17T11:45:40.491Z,98089.71
2023-01-17T11:48:09.955Z,98088.37
2023-01-17T11:50:53.770Z,98084.08
2023-01-17T11:53:24.684Z,98091.40
2023-01-17T11:56:19.460Z,98098.52
2023-01-17T11:58:46.376Z,98097.41
2023-01-17T12:01:34.819Z,98106.30
2023-01-17T12:04:20.055Z,98109.25
2023-01-17T12:07:17.088Z,98118.59
2023-01-17T12:10:19.163Z,98122.63
2023-01-17T12:13:04.292Z,98128.58
2023-01-17T12:15:33.813Z,98130.11
2023-01-17T12:18:29.805Z,98127.39
2023-01-17T12:21:02.378Z,98124.86
2023-01-17T12:23:53.415Z,98125.61
2023-01-17T12:26:42.345Z,98122.45
2023-01-17T12:29:17.858Z,98121.45
2023-01-17T12:31:56.091Z,98124.48
2023-01-17T12:34:39.984Z,98119.74
2023-01-17T12:37:27.953Z,98119.61
2023-01-17T12:40:05.006Z,98122.13
2023-01-17T12:42:37.717Z,98129.47
2023-01-17T12:45:17.553Z,98137.02
2023-01-17T12:47:50.178Z,98139.08
2023-01-17T12:50:32.390Z,98139.41
2023-01-17T12:53:07.466Z,98135.86
2023-01-17T12:55:33.893Z,98134.45
2023-01-17T12:58:03.906Z,98132.81
2023-01-17T13:00:33.040Z,98132.92
2023-01-17T13:03:11.879Z,98134.02
2023-01-17T13:05:47.829Z,98137.89
2023-01-17T13:08:24.609Z,98138.70
2023-01-17T13:11:11.895Z,98138.27
2023-01-17T13:13:40.943Z,98137.24
2023-01-17T13:16:12.602Z,98140.26
2023-01-17T13:18:47.342Z,98147.66
2023-01-17T13:21:33.900Z,98153.81
2023-01-17T13:24:05.536Z,98155.91
2023-01-17T13:26:31.993Z,98158.60
2023-01-17T13:29:12.560Z,98161.45
2023-01-17T13:31:48.872Z,98167.26
2023-01-17T13:34:18.377Z,98162.02
2023-01-17T13:37:25.061Z,98151.17
2023-01-17T13:40:10.752Z,98146.84
2023-01-17T13:42:52.488Z,98138.62
2023-01-17T13:45:23.975Z,98135.05
2023-01-17T13:47:50.577Z,98135.27
2023-01-17T13:50:38.577Z,98128.19
2023-01-17T13:53:36.149Z,98128.91
2023-01-17T13:56:02.542Z,98124.04
2023-01-17T13:58:30.142Z,98119.19
2023-01-17T14:00:56.726Z,98112.42
2023-01-17T14:03:50.920Z,98107.82
2023-01-17T14:06:36.390Z,98098.55
2023-01-17T14:09:11.709Z,98091.48
2023-01-17T14:11:59.508Z,98080.55
2023-01-17T14:14:46.833Z,98072.44
2023-01-17T14:17:16.093Z,98060.48
2023-01-17T14:19:46.805Z,98052.84
2023-01-17T14:22:19.345Z,98047.48
2023-01-17T14:25:04.682Z,98048.20
2023-01-17T14:27:33.591Z,98045.33
2023-01-17T14:30:04.894Z,98040.40
2023-01-17T14:32:35.097Z,98029.88
2023-01-17T14:35:05.405Z,98023.36
2023-01-17T14:37:31.879Z,98021.41
2023-01-17T14:40:00.036Z,98016.48
2023-01-17T14:42:29.440Z,98010.61
2023-01-17T14:45:03.090Z,98013.45
2023-01-17T14:47:33.444Z,98015.65
2023-01-17T14:50:29.701Z,98016.77
2023-01-17T14:53:11.205Z,98012.86
2023-01-17T14:55:38.462Z,97999.00
2023-01-17T14:58:05.029Z,97989.70
2023-01-17T15:00:31.508Z,97985.09
2023-01-17T15:02:58.838Z,97991.07
2023-01-17T15:05:27.816Z,97997.77
2023-01-17T15:07:57.325Z,97998.02
2023-01-17T15:10:28.237Z,97998.08
2023-01-17T15:12:56.424Z,98003.52
2023-01-17T15:15:34.716Z,98002.36
2023-01-17T15:18:27.623Z,98009.38
2023-01-17T15:21:01.166Z,98007.18
2023-01-17T15:23:36.158Z,98004.30
2023-01-17T15:26:05.974Z,97993.59
2023-01-17T15:28:33.834Z,97987.39
2023-01-17T15:31:01.924Z,97983.98
2023-01-17T15:33:31.257Z,97980.71
2023-01-17T15:36:11.138Z,97983.71
2023-01-17T15:38:40.429Z,97983.73
2023-01-17T15:41:15.822Z,97979.25
2023-01-17T15:43:44.578Z,97975.27
2023-01-17T15:46:28.435Z,97966.11
2023-01-17T15:49:05.887Z,97958.88
2023-01-17T15:51:38.681Z,97953.71
2023-01-17T15:54:42.424Z,97950.84
2023-01-17T15:57:25.529Z,97946.19
2023-01-17T16:00:06.641Z,97944.01
2023-01-17T16:02:43.746Z,97940.80
2023-01-17T16:05:25.565Z,97940.86
2023-01-17T16:07:57.335Z,97934.12
2023-01-17T16:10:28.423Z,97930.67
2023-01-17T16:12:55.530Z,97931.04
2023-01-17T16:15:23.414Z,97932.98
2023-01-17T16:17:53.454Z,97932.67
2023-01-17T16:20:23.312Z,97938.30
2023-01-17T16:22:50.266Z,97939.72
2023-01-17T16:25:19.926Z,97944.13
2023-01-17T16:27:47.074Z,97939.98
2023-01-17T16:30:16.865Z,97937.41
2023-01-17T16:32:48.120Z,97925.98
2023-01-17T16:35:23.493Z,97923.23
2023-01-17T16:38:16.263Z,97920.67
2023-01-17T16:40:44.873Z,97913.77
2023-01-17T16:43:12.779Z,97911.55
2023-01-17T16:45:47.664Z,97907.73
2023-01-17T16:48:14.703Z,97907.77
2023-01-17T16:50:46.734Z,97901.90
2023-01-17T16:53:14.087Z,97901.27
2023-01-17T16:55:42.039Z,97899.11
2023-01-17T16:58:08.618Z,97896.42
2023-01-17T17:00:35.071Z,97894.44
2023-01-17T17:03:01.571Z,97891.92
2023-01-17T17:05:28.096Z,97887.30
2023-01-17T17:07:54.805Z,97889.11
2023-01-17T17:10:22.252Z,97890.73
2023-01-17T17:12:48.724Z,97885.70
2023-01-17T17:15:15.186Z,97881.40
2023-01-17T17:17:43.319Z,97873.95
2023-01-17T17:20:13.102Z,97869.63
2023-01-17T17:22:49.076Z,97860.99
2023-01-17T17:25:16.114Z,97860.70
2023-01-17T17:27:42.775Z,97851.54
2023-01-17T17:30:10.287Z,97844.79
2023-01-17T17:32:39.502Z,97837.84
2023-01-17T17:35:09.295Z,97831.23
2023-01-17T17:37:35.832Z,97827.09
2023-01-17T17:40:02.323Z,97828.52
2023-01-17T17:42:28.758Z,97824.40
2023-01-17T17:44:55.209Z,97818.67
2023-01-17T17:47:21.696Z,97810.86
2023-01-17T17:49:48.152Z,97796.79
2023-01-17T17:52:14.603Z,97783.93
2023-01-17T17:54:41.722Z,97769.17
2023-01-17T17:57:09.093Z,97761.52
2023-01-17T17:59:35.574Z,97753.41
2023-01-17T18:02:02.191Z,97743.90
2023-01-17T18:04:28.746Z,97741.71
2023-01-17T18:06:57.316Z,97735.68
2023-01-17T18:09:26.456Z,97722.15
2023-01-17T18:11:54.589Z,97716.07
2023-01-17T18:14:21.333Z,97703.24
2023-01-17T18:16:47.915Z,97689.90
2023-01-17T18:19:18.087Z,97674.46
2023-01-17T18:21:44.799Z,97663.86
2023-01-17T18:24:14.103Z,97666.28
2023-01-17T18:26:46.647Z,97655.89
2023-01-17T18:29:15.325Z,97652.61
2023-01-17T18:31:46.184Z,97653.16
2023-01-17T18:34:14.936Z,97649.02
2023-01-17T18:36:42.015Z,97662.23
2023-01-17T18:39:17.468Z,97649.54
2023-01-17T18:41:44.115Z,97641.03
2023-01-17T18:44:11.246Z,97644.35
2023-01-17T18:46:38.128Z,97644.91
2023-01-17T18:49:05.025Z,97638.36
2023-01-17T18:51:32.994Z,97630.58
2023-01-17T18:53:59.513Z,97627.67
2023-01-17T18:56:25.981Z,97627.88
2023-01-17T18:58:52.454Z,97613.89
2023-01-17T19:01:22.714Z,97619.85
2023-01-17T19:03:51.784Z,97605.48
2023-01-17T19:06:21.556Z,97602.95
2023-01-17T19:08:48.032Z,97599.51
2023-01-17T19:11:15.155Z,97596.72
2023-01-17T19:13:41.652Z,97581.29
2023-01-17T19:16:12.995Z,97563.06
2023-01-17T19:18:41.985Z,97553.88
2023-01-17T19:21:11.285Z,97550.08
2023-01-17T19:23:38.218Z,97550.84
2023-01-17T19:26:07.408Z,97543.06
2023-01-17T19:28:36.641Z,97545.33
2023-01-17T19:31:15.919Z,97548.98
2023-01-17T19:33:44.624Z,97539.95
2023-01-17T19:36:14.194Z,97548.11
2023-01-17T19:38:40.681Z,97556.09
2023-01-17T19:41:15.062Z,97550.88
2023-01-17T19:43:42.348Z,97542.34
2023-01-17T19:46:10.556Z,97531.36
2023-01-17T19:48:39.213Z,97525.08
2023-01-17T19:51:11.276Z,97512.92
2023-01-17T19:53:39.560Z,97502.65
2023-01-17T19:56:11.098Z,97509.02
2023-01-17T19:58:38.607Z,97503.95
2023-01-17T20:01:10.337Z,97498.90
2023-01-17T20:03:37.953Z,97479.46
2023-01-17T20:06:06.172Z,97464.22
2023-01-17T20:08:33.993Z,97456.29
2023-01-17T20:11:02.015Z,97459.43
2023-01-17T20:13:28.623Z,97453.38
2023-01-17T20:15:55.103Z,97452.98
2023-01-17T20:18:21.638Z,97449.49
2023-01-17T20:20:56.901Z,97436.52
2023-01-17T20:23:24.063Z,97438.61
2023-01-17T20:25:54.550Z,97435.23
2023-01-17T20:28:20.994Z,97443.56
2023-01-17T20:30:47.467Z,97444.27
2023-01-17T20:33:13.893Z,97438.48
2023-01-17T20:35:40.335Z,97451.46
2023-01-17T20:38:06.840Z,97455.15
2023-01-17T20:40:33.304Z,97459.15
2023-01-17T20:42:59.769Z,97457.09
2023-01-17T20:45:26.224Z,97456.35
2023-01-17T20:47:52.695Z,97451.25
2023-01-17T20:50:19.135Z,97435.91
2023-01-17T20:52:45.621Z,97431.55
2023-01-17T20:55:15.079Z,97429.48
2023-01-17T20:57:41.610Z,97433.33
2023-01-17T21:00:08.817Z,97429.03
2023-01-17T21:02:35.362Z,97426.89
2023-01-17T21:05:01.832Z,97425.67
2023-01-17T21:07:28.316Z,97423.73
2023-01-17T21:09:54.763Z,97418.55
2023-01-17T21:12:21.218Z,97407.41
2023-01-17T21:14:48.105Z,97396.91
2023-01-17T21:17:14.582Z,97383.13
2023-01-17T21:19:41.188Z,97371.90
2023-01-17T21:22:07.670Z,97371.06
2023-01-17T21:24:36.255Z,97364.67
2023-01-17T21:27:02.710Z,97364.90
2023-01-17T21:29:29.184Z,97353.41
2023-01-17T21:31:56.161Z,97351.23
2023-01-17T21:34:25.270Z,97359.49
2023-01-17T21:36:51.991Z,97359.92
2023-01-17T21:39:19.172Z,97349.13
2023-01-17T21:41:48.197Z,97328.93
2023-01-17T21:44:22.952Z,97313.38
2023-01-17T21:46:50.044Z,97304.86
2023-01-17T21:49:16.492Z,97307.30
2023-01-17T21:51:43.549Z,97303.21
2023-01-17T21:54:10.095Z,97315.84
2023-01-17T21:56:36.538Z,97305.74
2023-01-17T21:59:03.008Z,97315.59
2023-01-17T22:01:32.899Z,97318.63
2023-01-17T22:04:03.526Z,97326.50
2023-01-17T22:06:33.787Z,97325.88
2023-01-17T22:09:00.306Z,97309.48
2023-01-17T22:11:27.592Z,97303.20
2023-01-17T22:13:54.259Z,97311.77
2023-01-17T22:16:23.039Z,97312.16
2023-01-17T22:18:50.463Z,97314.12
2023-01-17T22:21:23.616Z,97306.27
2023-01-17T22:23:52.334Z,97289.16
2023-01-17T22:26:20.665Z,97276.96
2023-01-17T22:28:47.288Z,97282.63
2023-01-17T22:31:19.524Z,97287.36
2023-01-17T22:33:47.553Z,97286.80
2023-01-17T22:36:15.212Z,97285.73
2023-01-17T22:38:43.254Z,97289.11
2023-01-17T22:41:21.330Z,97288.79
2023-01-17T22:43:53.405Z,97302.31
2023-01-17T22:46:22.944Z,97315.11
2023-01-17T22:48:49.825Z,97318.53
2023-01-17T22:51:18.248Z,97318.45
2023-01-17T22:53:50.249Z,97317.97
2023-01-17T22:56:19.125Z,97318.55
2023-01-17T22:58:46.078Z,97307.30
2023-01-17T23:01:14.412Z,97327.23
2023-01-17T23:03:41.765Z,97336.23
2023-01-17T23:06:20.145Z,97318.05
2023-01-17T23:08:49.796Z,97307.97
2023-01-17T23:11:30.511Z,97323.14
2023-01-17T23:13:57.015Z,97330.04
2023-01-17T23:16:23.503Z,97342.52
2023-01-17T23:18:49.991Z,97339.27
2023-01-17T23:21:16.464Z,97344.63
2023-01-17T23:23:42.905Z,97344.30
2023-01-17T23:26:09.391Z,97344.98
2023-01-17T23:28:35.926Z,97352.60
2023-01-17T23:31:02.993Z,97362.97
2023-01-17T23:33:29.479Z,97365.59
2023-01-17T23:35:55.931Z,97365.59
2023-01-17T23:38:22.395Z,97370.89
2023-01-17T23:40:49.164Z,97359.11
2023-01-17T23:43:15.619Z,97362.66
2023-01-17T23:45:42.323Z,97362.63
2023-01-17T23:48:09.690Z,97352.49
2023-01-17T23:50:37.601Z,97348.61
2023-01-17T23:53:04.459Z,97356.38
2023-01-17T23:55:30.919Z,97365.02
2023-01-17T23:57:57.373Z,97356.89
